createdAt,value
2023-01-25T00:01:50.443Z,24.87
2023-01-25T00:04:20.358Z,24.47
2023-01-25T00:06:49.648Z,25.00
2023-01-25T00:09:18.842Z,25.50
2023-01-25T00:11:47.961Z,25.40
2023-01-25T00:14:17.400Z,23.83
2023-01-25T00:16:46.291Z,24.77
2023-01-25T00:19:14.831Z,26.40
2023-01-25T00:21:44.946Z,25.00
2023-01-25T00:24:14.513Z,25.97
2023-01-25T00:26:44.838Z,24.97
2023-01-25T00:29:14.404Z,24.57
2023-01-25T00:31:51.611Z,27.13
2023-01-25T00:34:47.984Z,26.33
2023-01-25T00:37:29.400Z,26.40
2023-01-25T00:39:59.073Z,25.80
2023-01-25T00:42:27.698Z,25.97
2023-01-25T00:44:56.063Z,26.33
2023-01-25T00:47:24.927Z,26.03
2023-01-25T00:49:53.434Z,26.27
2023-01-25T00:52:23.692Z,26.17
2023-01-25T00:54:52.033Z,27.10
2023-01-25T00:57:20.692Z,27.60
2023-01-25T00:59:49.373Z,27.70
2023-01-25T01:02:18.349Z,27.70
2023-01-25T01:04:47.060Z,28.93
2023-01-25T01:07:16.535Z,26.43
2023-01-25T01:09:46.427Z,28.47
2023-01-25T01:12:15.531Z,29.67
2023-01-25T01:14:44.429Z,29.07
2023-01-25T01:17:13.218Z,30.00
2023-01-25T01:19:41.546Z,28.73
2023-01-25T01:22:10.297Z,28.60
2023-01-25T01:24:39.184Z,28.97
2023-01-25T01:27:09.298Z,28.57
2023-01-25T01:29:38.072Z,28.83
2023-01-25T01:32:07.629Z,28.73
2023-01-25T01:34:36.505Z,29.13
2023-01-25T01:37:05.274Z,29.50
2023-01-25T01:39:33.864Z,27.40
2023-01-25T01:42:02.523Z,24.90
2023-01-25T01:44:49.534Z,20.53
2023-01-25T01:47:23.405Z,19.40
2023-01-25T01:49:58.993Z,19.07
2023-01-25T01:52:32.479Z,17.67
2023-01-25T01:55:05.328Z,17.63
2023-01-25T01:57:39.185Z,18.17
2023-01-25T02:00:14.646Z,15.00
2023-01-25T02:02:45.024Z,13.13
2023-01-25T02:05:19.387Z,11.50
2023-01-25T02:07:51.910Z,13.67
2023-01-25T02:10:23.035Z,14.53
2023-01-25T02:12:54.341Z,14.80
2023-01-25T02:15:24.348Z,14.67
2023-01-25T02:17:53.139Z,13.37
2023-01-25T02:20:30.141Z,13.43
2023-01-25T02:23:04.695Z,13.80
2023-01-25T02:25:34.849Z,14.10
2023-01-25T02:28:09.788Z,12.87
2023-01-25T02:30:38.268Z,12.93
2023-01-25T02:33:06.848Z,12.63
2023-01-25T02:35:43.001Z,12.47
2023-01-25T02:38:14.924Z,11.83
2023-01-25T02:40:48.696Z,12.50
2023-01-25T02:43:18.592Z,12.67
2023-01-25T02:45:53.528Z,11.40
2023-01-25T02:48:22.632Z,11.80
2023-01-25T02:50:51.911Z,13.53
2023-01-25T02:53:20.634Z,13.17
2023-01-25T02:55:50.396Z,12.33
2023-01-25T02:58:19.490Z,13.17
2023-01-25T03:00:47.861Z,12.07
2023-01-25T03:03:16.780Z,11.33
2023-01-25T03:05:46.701Z,14.07
2023-01-25T03:08:15.541Z,13.93
2023-01-25T03:10:44.362Z,13.73
2023-01-25T03:13:14.600Z,14.87
2023-01-25T03:15:43.577Z,13.73
2023-01-25T03:18:12.348Z,13.20
2023-01-25T03:20:40.708Z,13.57
2023-01-25T03:23:09.943Z,14.60
2023-01-25T03:25:39.590Z,13.20
2023-01-25T03:28:17.161Z,14.40
2023-01-25T03:30:54.192Z,14.70
2023-01-25T03:33:23.213Z,14.40
2023-01-25T03:35:53.716Z,14.43
2023-01-25T03:38:23.148Z,14.33
2023-01-25T03:40:51.582Z,14.73
2023-01-25T03:43:22.469Z,14.77
2023-01-25T03:45:57.402Z,15.50
2023-01-25T03:48:27.030Z,13.87
2023-01-25T03:50:57.613Z,15.47
2023-01-25T03:53:29.545Z,16.70
2023-01-25T03:56:07.821Z,17.47
2023-01-25T03:58:40.059Z,17.20
2023-01-25T04:01:10.558Z,15.73
2023-01-25T04:03:40.301Z,17.10
2023-01-25T04:06:09.951Z,17.50
2023-01-25T04:08:40.073Z,16.93
2023-01-25T04:11:10.443Z,18.03
2023-01-25T04:13:41.164Z,18.67
2023-01-25T04:16:12.797Z,16.17
2023-01-25T04:19:00.041Z,16.60
2023-01-25T04:21:30.184Z,17.10
2023-01-25T04:23:59.421Z,17.03
2023-01-25T04:26:27.861Z,16.57
2023-01-25T04:29:01.884Z,17.20
2023-01-25T04:31:30.481Z,18.27
2023-01-25T04:34:00.166Z,19.20
2023-01-25T04:36:29.341Z,16.47
2023-01-25T04:38:58.029Z,16.73
2023-01-25T04:41:29.201Z,16.33
2023-01-25T04:43:58.459Z,16.17
2023-01-25T04:46:28.753Z,16.70
2023-01-25T04:48:58.252Z,17.23
2023-01-25T04:51:26.845Z,16.77
2023-01-25T04:53:55.640Z,17.70
2023-01-25T04:56:24.607Z,15.93
2023-01-25T04:58:56.010Z,16.73
2023-01-25T05:01:24.525Z,16.53
2023-01-25T05:03:55.621Z,16.53
2023-01-25T05:06:38.994Z,16.70
2023-01-25T05:09:07.995Z,14.97
2023-01-25T05:11:36.999Z,15.83
2023-01-25T05:14:25.801Z,15.57
2023-01-25T05:16:54.447Z,12.90
2023-01-25T05:19:25.327Z,14.27
2023-01-25T05:21:59.640Z,15.47
2023-01-25T05:24:59.244Z,14.70
2023-01-25T05:27:26.907Z,14.30
2023-01-25T05:29:56.364Z,15.13
2023-01-25T05:32:32.506Z,16.37
2023-01-25T05:35:02.946Z,16.97
2023-01-25T05:37:31.627Z,13.53
2023-01-25T05:40:05.138Z,12.77
2023-01-25T05:42:38.271Z,13.33
2023-01-25T05:45:12.162Z,13.07
2023-01-25T05:47:41.672Z,11.87
2023-01-25T05:50:12.936Z,11.43
2023-01-25T05:52:57.187Z,13.30
2023-01-25T05:55:26.227Z,12.40
2023-01-25T05:57:56.924Z,12.73
2023-01-25T06:00:26.002Z,13.90
2023-01-25T06:02:56.897Z,13.13
2023-01-25T06:05:28.329Z,11.83
2023-01-25T06:07:56.691Z,11.20
2023-01-25T06:10:27.798Z,11.40
2023-01-25T06:12:59.265Z,11.37
2023-01-25T06:15:28.432Z,11.43
2023-01-25T06:18:09.451Z,11.93
2023-01-25T06:20:49.745Z,12.37
2023-01-25T06:23:18.529Z,11.57
2023-01-25T06:25:47.266Z,12.00
2023-01-25T06:28:15.616Z,10.23
2023-01-25T06:30:44.357Z,8.90
2023-01-25T06:33:12.789Z,9.00
2023-01-25T06:35:42.593Z,8.83
2023-01-25T06:38:12.297Z,8.80
2023-01-25T06:40:40.882Z,8.43
2023-01-25T06:43:12.828Z,9.43
2023-01-25T06:45:41.798Z,10.43
2023-01-25T06:48:12.242Z,9.90
2023-01-25T06:50:41.646Z,10.13
2023-01-25T06:53:11.337Z,9.30
2023-01-25T06:55:40.029Z,8.60
2023-01-25T06:58:08.414Z,9.70
2023-01-25T07:00:37.350Z,8.83
2023-01-25T07:03:05.732Z,8.00
2023-01-25T07:05:34.567Z,8.43
2023-01-25T07:08:03.001Z,8.43
2023-01-25T07:10:33.936Z,8.03
2023-01-25T07:13:02.392Z,7.33
2023-01-25T07:15:31.038Z,7.53
2023-01-25T07:18:08.333Z,8.03
2023-01-25T07:20:43.540Z,8.20
2023-01-25T07:23:11.880Z,8.93
2023-01-25T07:25:46.805Z,9.87
2023-01-25T07:28:16.046Z,8.50
2023-01-25T07:30:45.261Z,9.27
2023-01-25T07:33:14.044Z,9.07
2023-01-25T07:35:42.945Z,9.37
2023-01-25T07:38:12.919Z,9.80
2023-01-25T07:40:42.980Z,10.67
2023-01-25T07:43:12.666Z,9.00
2023-01-25T07:45:45.389Z,8.77
2023-01-25T07:48:13.747Z,8.50
2023-01-25T07:50:42.664Z,10.20
2023-01-25T07:53:11.194Z,8.77
2023-01-25T07:55:40.137Z,9.97
2023-01-25T07:58:09.259Z,9.60
2023-01-25T08:00:40.384Z,9.87
2023-01-25T08:03:10.188Z,9.50
2023-01-25T08:05:40.237Z,9.83
2023-01-25T08:08:08.619Z,9.10
2023-01-25T08:10:37.656Z,8.50
2023-01-25T08:13:06.860Z,9.10
2023-01-25T08:15:35.676Z,8.30
2023-01-25T08:18:05.772Z,8.63
2023-01-25T08:20:34.958Z,8.97
2023-01-25T08:23:03.404Z,8.40
2023-01-25T08:25:32.138Z,9.93
2023-01-25T08:28:00.550Z,9.57
2023-01-25T08:30:29.330Z,9.87
2023-01-25T08:32:57.825Z,9.93
2023-01-25T08:35:27.840Z,11.03
2023-01-25T08:37:56.184Z,10.60
2023-01-25T08:40:24.917Z,9.43
2023-01-25T08:42:53.217Z,9.33
2023-01-25T08:45:22.238Z,9.63
2023-01-25T08:47:50.582Z,9.57
2023-01-25T08:50:19.390Z,7.77
2023-01-25T08:52:49.388Z,9.13
2023-01-25T08:55:18.205Z,10.20
2023-01-25T08:57:46.557Z,8.00
2023-01-25T09:00:16.696Z,9.57
2023-01-25T09:02:45.160Z,11.33
2023-01-25T09:05:13.853Z,8.90
2023-01-25T09:07:42.185Z,9.33
2023-01-25T09:10:13.173Z,10.10
2023-01-25T09:12:41.736Z,10.57
2023-01-25T09:15:11.377Z,9.53
2023-01-25T09:17:39.957Z,9.50
2023-01-25T09:20:10.589Z,9.17
2023-01-25T09:22:40.600Z,11.03
2023-01-25T09:25:10.090Z,10.90
2023-01-25T09:27:39.913Z,9.70
2023-01-25T09:30:18.317Z,12.60
2023-01-25T09:32:50.994Z,9.43
2023-01-25T09:35:19.694Z,9.30
2023-01-25T09:37:53.323Z,9.63
2023-01-25T09:40:23.859Z,10.23
2023-01-25T09:43:06.858Z,11.17
2023-01-25T09:45:37.358Z,10.90
2023-01-25T09:48:23.789Z,10.03
2023-01-25T09:51:19.185Z,12.77
2023-01-25T09:53:51.323Z,11.40
2023-01-25T09:56:24.670Z,10.83
2023-01-25T09:58:59.292Z,11.60
2023-01-25T10:01:38.876Z,11.70
2023-01-25T10:04:15.905Z,9.57
2023-01-25T10:06:59.730Z,11.27
2023-01-25T10:09:37.165Z,11.30
2023-01-25T10:12:14.970Z,11.27
2023-01-25T10:14:44.995Z,11.03
2023-01-25T10:17:28.702Z,11.33
2023-01-25T10:20:11.117Z,11.17
2023-01-25T10:22:45.869Z,11.50
2023-01-25T10:25:37.149Z,11.73
2023-01-25T10:28:18.459Z,12.83
2023-01-25T10:30:58.268Z,12.60
2023-01-25T10:33:29.492Z,11.40
2023-01-25T10:36:00.077Z,10.60
2023-01-25T10:38:33.773Z,10.00
2023-01-25T10:41:06.437Z,12.80
2023-01-25T10:43:35.164Z,11.93
2023-01-25T10:46:05.290Z,13.37
2023-01-25T10:48:37.567Z,11.87
2023-01-25T10:51:06.807Z,11.50
2023-01-25T10:53:39.339Z,10.53
2023-01-25T10:56:20.567Z,11.73
2023-01-25T10:58:52.108Z,11.57
2023-01-25T11:01:29.844Z,10.87
2023-01-25T11:03:59.592Z,10.97
2023-01-25T11:06:34.175Z,10.60
2023-01-25T11:09:03.636Z,9.53
2023-01-25T11:11:36.632Z,9.97
2023-01-25T11:14:17.527Z,10.27
2023-01-25T11:16:48.961Z,10.27
2023-01-25T11:19:28.460Z,10.00
2023-01-25T11:21:59.817Z,11.40
2023-01-25T11:24:30.030Z,12.87
2023-01-25T11:27:18.613Z,12.87
2023-01-25T11:29:48.505Z,12.23
2023-01-25T11:32:25.001Z,10.77
2023-01-25T11:34:53.980Z,12.03
2023-01-25T11:37:46.103Z,10.47
2023-01-25T11:40:22.153Z,11.20
2023-01-25T11:43:01.079Z,9.73
2023-01-25T11:46:05.326Z,12.67
2023-01-25T11:48:51.694Z,12.53
2023-01-25T11:51:27.539Z,12.83
2023-01-25T11:54:09.364Z,11.47
2023-01-25T11:56:51.640Z,10.07
2023-01-25T11:59:33.891Z,10.13
2023-01-25T12:02:20.479Z,10.33
2023-01-25T12:05:09.670Z,11.83
2023-01-25T12:07:56.740Z,10.67
2023-01-25T12:10:34.861Z,9.97
2023-01-25T12:13:09.972Z,11.27
2023-01-25T12:15:54.856Z,11.07
2023-01-25T12:18:43.401Z,11.83
2023-01-25T12:21:31.367Z,10.83
2023-01-25T12:24:20.706Z,13.43
2023-01-25T12:26:58.040Z,12.50
2023-01-25T12:29:30.907Z,10.80
2023-01-25T12:32:06.981Z,12.67
2023-01-25T12:34:38.819Z,13.33
2023-01-25T12:37:18.242Z,12.80
2023-01-25T12:39:50.124Z,11.73
2023-01-25T12:42:22.526Z,12.77
2023-01-25T12:44:57.258Z,10.83
2023-01-25T12:47:34.818Z,12.00
2023-01-25T12:50:14.911Z,11.57
2023-01-25T12:52:49.083Z,11.73
2023-01-25T12:55:19.822Z,11.23
2023-01-25T12:57:55.101Z,12.47
2023-01-25T13:00:27.338Z,11.83
2023-01-25T13:03:26.837Z,11.77
2023-01-25T13:06:04.431Z,11.43
2023-01-25T13:08:44.631Z,11.40
2023-01-25T13:11:17.806Z,12.47
2023-01-25T13:13:46.416Z,12.50
2023-01-25T13:16:32.603Z,13.07
2023-01-25T13:19:01.536Z,12.53
2023-01-25T13:21:42.626Z,13.93
2023-01-25T13:24:21.085Z,12.37
2023-01-25T13:26:52.055Z,15.30
2023-01-25T13:29:57.402Z,12.17
2023-01-25T13:32:56.297Z,11.57
2023-01-25T13:35:33.208Z,12.73
2023-01-25T13:38:20.811Z,13.00
2023-01-25T13:41:14.407Z,13.83
2023-01-25T13:43:46.147Z,14.37
2023-01-25T13:46:18.807Z,13.70
2023-01-25T13:49:02.281Z,13.83
2023-01-25T13:51:35.947Z,12.87
2023-01-25T13:54:04.844Z,14.27
2023-01-25T13:56:37.418Z,12.37
2023-01-25T13:59:06.351Z,14.57
2023-01-25T14:01:37.834Z,14.33
2023-01-25T14:04:06.792Z,14.43
2023-01-25T14:06:38.171Z,14.10
2023-01-25T14:09:21.749Z,16.03
2023-01-25T14:11:56.545Z,14.60
2023-01-25T14:14:27.823Z,17.13
2023-01-25T14:17:16.627Z,18.27
2023-01-25T14:19:48.804Z,15.50
2023-01-25T14:22:24.978Z,14.83
2023-01-25T14:25:11.029Z,16.57
2023-01-25T14:27:46.613Z,16.43
2023-01-25T14:30:22.277Z,13.97
2023-01-25T14:32:53.595Z,14.50
2023-01-25T14:35:43.489Z,14.43
2023-01-25T14:38:30.113Z,13.87
2023-01-25T14:41:03.249Z,13.33
2023-01-25T14:43:34.025Z,16.73
2023-01-25T14:46:02.382Z,14.93
2023-01-25T14:48:42.067Z,14.63
2023-01-25T14:51:19.392Z,16.43
2023-01-25T14:53:52.851Z,15.60
2023-01-25T14:56:33.285Z,15.07
2023-01-25T14:59:05.159Z,17.10
2023-01-25T15:01:38.260Z,15.40
2023-01-25T15:04:12.416Z,14.80
2023-01-25T15:06:48.733Z,16.03
2023-01-25T15:09:34.869Z,15.13
2023-01-25T15:12:06.445Z,15.80
2023-01-25T15:14:49.225Z,13.33
2023-01-25T15:17:44.070Z,13.70
2023-01-25T15:20:41.078Z,13.93
2023-01-25T15:23:26.842Z,14.03
2023-01-25T15:25:57.484Z,15.13
2023-01-25T15:28:28.299Z,17.17
2023-01-25T15:30:59.528Z,15.67
2023-01-25T15:33:30.589Z,15.97
2023-01-25T15:36:00.001Z,14.43
2023-01-25T15:38:28.393Z,14.90
2023-01-25T15:41:01.403Z,16.07
2023-01-25T15:43:30.153Z,17.37
2023-01-25T15:46:01.716Z,17.23
2023-01-25T15:48:31.897Z,17.57
2023-01-25T15:51:00.823Z,18.27
2023-01-25T15:53:29.469Z,15.47
2023-01-25T15:56:02.188Z,17.33
2023-01-25T15:58:33.996Z,18.37
2023-01-25T16:01:04.366Z,18.70
2023-01-25T16:03:32.817Z,17.43
2023-01-25T16:06:03.656Z,16.83
2023-01-25T16:08:35.052Z,17.30
2023-01-25T16:11:03.661Z,17.00
2023-01-25T16:13:31.983Z,16.43
2023-01-25T16:16:00.603Z,16.37
2023-01-25T16:18:30.499Z,16.20
2023-01-25T16:20:59.307Z,17.47
2023-01-25T16:23:27.665Z,18.23
2023-01-25T16:25:56.635Z,16.70
2023-01-25T16:28:25.009Z,18.00
2023-01-25T16:30:53.739Z,16.47
2023-01-25T16:33:24.265Z,18.23
2023-01-25T16:36:05.570Z,16.10
2023-01-25T16:38:35.357Z,16.37
2023-01-25T16:41:03.986Z,17.97
2023-01-25T16:43:42.495Z,17.83
2023-01-25T16:46:17.363Z,18.07
2023-01-25T16:48:45.992Z,16.47
2023-01-25T16:51:21.170Z,17.70
2023-01-25T16:53:51.042Z,16.80
2023-01-25T16:56:20.789Z,17.70
2023-01-25T16:58:49.836Z,16.67
2023-01-25T17:01:20.275Z,17.77
2023-01-25T17:03:48.891Z,17.03
2023-01-25T17:06:21.313Z,16.63
2023-01-25T17:08:50.539Z,17.43
2023-01-25T17:11:19.910Z,17.33
2023-01-25T17:13:50.257Z,18.77
2023-01-25T17:16:19.689Z,17.87
2023-01-25T17:18:48.252Z,18.33
2023-01-25T17:21:19.420Z,17.57
2023-01-25T17:23:48.361Z,16.77
2023-01-25T17:26:19.087Z,18.33
2023-01-25T17:28:48.265Z,20.00
2023-01-25T17:31:18.880Z,18.73
2023-01-25T17:33:47.741Z,18.43
2023-01-25T17:36:17.876Z,19.03
2023-01-25T17:38:46.594Z,19.50
2023-01-25T17:41:17.418Z,18.87
2023-01-25T17:43:45.924Z,19.37
2023-01-25T17:46:15.983Z,18.40
2023-01-25T17:48:44.804Z,18.17
2023-01-25T17:51:13.418Z,20.07
2023-01-25T17:53:43.296Z,19.93
2023-01-25T17:56:13.113Z,18.37
2023-01-25T17:58:42.662Z,19.63
2023-01-25T18:01:14.158Z,21.20
2023-01-25T18:03:43.701Z,21.93
2023-01-25T18:06:14.750Z,21.50
2023-01-25T18:08:46.457Z,21.77
2023-01-25T18:11:18.148Z,21.63
2023-01-25T18:13:48.605Z,22.10
2023-01-25T18:16:18.754Z,21.70
2023-01-25T18:18:47.465Z,22.70
2023-01-25T18:21:22.118Z,21.67
2023-01-25T18:23:53.297Z,22.50
2023-01-25T18:26:24.247Z,23.03
2023-01-25T18:28:55.134Z,22.60
2023-01-25T18:31:24.181Z,20.50
2023-01-25T18:33:52.909Z,21.97
2023-01-25T18:36:22.273Z,22.50
2023-01-25T18:38:52.268Z,21.53
2023-01-25T18:41:21.259Z,21.90
2023-01-25T18:43:50.825Z,21.10
2023-01-25T18:46:19.863Z,22.57
2023-01-25T18:48:48.483Z,21.63
2023-01-25T18:51:18.523Z,21.60
2023-01-25T18:53:48.038Z,23.20
2023-01-25T18:56:21.520Z,24.87
2023-01-25T18:58:52.212Z,22.50
2023-01-25T19:01:22.917Z,24.10
2023-01-25T19:03:52.932Z,24.63
2023-01-25T19:06:23.399Z,23.93
2023-01-25T19:08:54.299Z,26.67
2023-01-25T19:11:26.913Z,25.53
2023-01-25T19:13:56.316Z,26.87
2023-01-25T19:16:26.189Z,29.47
2023-01-25T19:18:56.149Z,29.33
2023-01-25T19:21:27.205Z,30.73
2023-01-25T19:23:59.298Z,28.63
2023-01-25T19:26:30.372Z,27.77
2023-01-25T19:28:59.630Z,27.58
2023-01-25T19:31:32.115Z,29.30
2023-01-25T19:34:02.992Z,27.97
2023-01-25T19:36:36.623Z,30.00
2023-01-25T19:39:10.208Z,28.27
2023-01-25T19:41:45.820Z,28.03
2023-01-25T19:44:18.538Z,28.50
2023-01-25T19:46:50.953Z,28.67
2023-01-25T19:49:22.283Z,29.40
2023-01-25T19:51:53.887Z,29.13
2023-01-25T19:54:27.618Z,29.63
2023-01-25T19:56:59.091Z,29.23
2023-01-25T19:59:28.989Z,29.60
2023-01-25T20:01:58.402Z,29.70
2023-01-25T20:04:27.233Z,28.60
2023-01-25T20:06:56.453Z,29.83
2023-01-25T20:09:28.644Z,29.83
2023-01-25T20:12:00.670Z,29.10
2023-01-25T20:14:29.154Z,27.60
2023-01-25T20:16:58.587Z,28.37
2023-01-25T20:19:28.088Z,28.07
2023-01-25T20:22:00.478Z,26.67
2023-01-25T20:24:29.464Z,26.70
2023-01-25T20:26:59.932Z,25.83
2023-01-25T20:29:28.979Z,26.20
2023-01-25T20:31:58.142Z,27.03
2023-01-25T20:34:28.318Z,25.33
2023-01-25T20:36:57.535Z,26.77
2023-01-25T20:39:26.197Z,24.43
2023-01-25T20:41:56.701Z,26.80
2023-01-25T20:44:28.649Z,24.10
2023-01-25T20:46:58.737Z,25.97
2023-01-25T20:49:27.491Z,28.23
2023-01-25T20:51:56.562Z,28.70
2023-01-25T20:54:25.202Z,27.60
2023-01-25T20:56:54.248Z,28.50
2023-01-25T20:59:23.216Z,28.33
2023-01-25T21:01:55.511Z,28.30
2023-01-25T21:04:24.333Z,27.10
2023-01-25T21:06:53.682Z,26.70
2023-01-25T21:09:23.296Z,27.87
2023-01-25T21:11:52.156Z,28.90
2023-01-25T21:14:21.971Z,29.13
2023-01-25T21:16:50.691Z,30.20
2023-01-25T21:19:20.592Z,33.90
2023-01-25T21:21:49.389Z,32.73
2023-01-25T21:24:18.061Z,31.37
2023-01-25T21:26:46.962Z,32.73
2023-01-25T21:29:15.702Z,33.23
2023-01-25T21:31:44.484Z,31.83
2023-01-25T21:34:12.964Z,31.17
2023-01-25T21:36:43.148Z,31.37
2023-01-25T21:39:11.622Z,30.73
2023-01-25T21:41:40.347Z,30.30
2023-01-25T21:44:26.427Z,32.43
2023-01-25T21:47:23.621Z,31.63
2023-01-25T21:50:03.111Z,31.43
2023-01-25T21:52:36.339Z,31.47
2023-01-25T21:55:05.791Z,30.97
2023-01-25T21:57:34.489Z,30.50
2023-01-25T22:00:04.379Z,31.03
2023-01-25T22:02:33.779Z,34.03
2023-01-25T22:05:02.324Z,33.40
2023-01-25T22:07:33.522Z,30.33
2023-01-25T22:10:03.604Z,31.73
2023-01-25T22:12:32.405Z,30.43
2023-01-25T22:15:01.502Z,32.50
2023-01-25T22:17:30.480Z,31.00
2023-01-25T22:19:58.856Z,29.90
2023-01-25T22:22:28.741Z,30.73
2023-01-25T22:24:57.114Z,29.00
2023-01-25T22:27:38.306Z,30.03
2023-01-25T22:30:08.068Z,27.03
2023-01-25T22:32:36.786Z,29.77
2023-01-25T22:35:05.669Z,30.43
2023-01-25T22:37:37.932Z,30.83
2023-01-25T22:40:08.256Z,29.13
2023-01-25T22:42:38.647Z,29.03
2023-01-25T22:45:08.495Z,28.97
2023-01-25T22:47:37.171Z,27.90
2023-01-25T22:50:06.267Z,29.30
2023-01-25T22:52:34.817Z,28.03
2023-01-25T22:55:03.236Z,26.47
2023-01-25T22:57:31.802Z,29.30
2023-01-25T23:00:01.668Z,28.80
2023-01-25T23:02:30.301Z,27.00
2023-01-25T23:04:58.809Z,29.47
2023-01-25T23:07:27.486Z,29.00
2023-01-25T23:09:55.841Z,26.97
2023-01-25T23:12:24.475Z,27.90
2023-01-25T23:14:55.151Z,27.20
2023-01-25T23:17:42.895Z,26.03
2023-01-25T23:20:13.336Z,27.33
2023-01-25T23:22:42.796Z,24.97
2023-01-25T23:25:12.310Z,26.70
2023-01-25T23:27:40.999Z,27.23
2023-01-25T23:30:11.053Z,26.70
2023-01-25T23:32:49.175Z,25.93
2023-01-25T23:35:18.651Z,27.20
2023-01-25T23:37:48.476Z,26.03
2023-01-25T23:40:17.472Z,26.80
2023-01-25T23:42:46.081Z,25.20
2023-01-25T23:45:14.508Z,26.10
2023-01-25T23:47:44.586Z,24.90
2023-01-25T23:50:13.643Z,26.90
2023-01-25T23:52:42.429Z,26.57
2023-01-25T23:55:12.052Z,27.47
2023-01-25T23:57:40.640Z,27.13
